sensor_id;sensor_type;location;lat;lon;timestamp;pressure;altitude;pressure_sealevel;temperature;humidity
56582;BME280;42463;52.214;21.238;2023-03-03T00:01:13;100750.85;;;0.36;68.82
56582;BME280;42463;52.214;21.238;2023-03-03T00:03:37;100747.52;;;0.36;68.62
56582;BME280;42463;52.214;21.238;2023-03-03T00:06:03;100750.44;;;0.38;68.86
56582;BME280;42463;52.214;21.238;2023-03-03T00:08:28;100749.35;;;0.40;68.54
56582;BME280;42463;52.214;21.238;2023-03-03T00:10:52;100744.96;;;0.38;68.38
56582;BME280;42463;52.214;21.238;2023-03-03T00:13:19;100740.32;;;0.35;68.47
56582;BME280;42463;52.214;21.238;2023-03-03T00:15:44;100740.35;;;0.35;68.56
56582;BME280;42463;52.214;21.238;2023-03-03T00:18:19;100741.39;;;0.38;68.43
56582;BME280;42463;52.214;21.238;2023-03-03T00:20:49;100740.19;;;0.36;68.40
56582;BME280;42463;52.214;21.238;2023-03-03T00:23:22;100741.11;;;0.33;68.50
56582;BME280;42463;52.214;21.238;2023-03-03T00:25:50;100741.91;;;0.29;68.42
56582;BME280;42463;52.214;21.238;2023-03-03T00:28:23;100735.81;;;0.28;68.47
56582;BME280;42463;52.214;21.238;2023-03-03T00:30:48;100730.52;;;0.28;68.34
56582;BME280;42463;52.214;21.238;2023-03-03T00:33:23;100720.89;;;0.29;68.31
56582;BME280;42463;52.214;21.238;2023-03-03T00:35:50;100716.40;;;0.28;68.24
56582;BME280;42463;52.214;21.238;2023-03-03T00:38:17;100714.84;;;0.27;68.52
56582;BME280;42463;52.214;21.238;2023-03-03T00:40:42;100710.67;;;0.26;68.49
56582;BME280;42463;52.214;21.238;2023-03-03T00:43:17;100703.34;;;0.22;68.31
56582;BME280;42463;52.214;21.238;2023-03-03T00:45:44;100703.13;;;0.17;68.51
56582;BME280;42463;52.214;21.238;2023-03-03T00:48:22;100697.46;;;0.12;68.69
56582;BME280;42463;52.214;21.238;2023-03-03T00:50:47;100695.75;;;0.06;68.67
56582;BME280;42463;52.214;21.238;2023-03-03T00:53:14;100694.05;;;0.02;69.10
56582;BME280;42463;52.214;21.238;2023-03-03T00:55:40;100691.17;;;-0.01;69.14
56582;BME280;42463;52.214;21.238;2023-03-03T00:58:05;100684.88;;;-0.01;69.83
56582;BME280;42463;52.214;21.238;2023-03-03T01:00:32;100688.67;;;-0.01;69.41
56582;BME280;42463;52.214;21.238;2023-03-03T01:02:57;100682.08;;;-0.01;69.51
56582;BME280;42463;52.214;21.238;2023-03-03T01:05:23;100683.61;;;0.01;69.33
56582;BME280;42463;52.214;21.238;2023-03-03T01:07:48;100680.80;;;0.03;69.34
56582;BME280;42463;52.214;21.238;2023-03-03T01:10:14;100678.38;;;0.02;69.33
56582;BME280;42463;52.214;21.238;2023-03-03T01:12:39;100676.61;;;0.02;69.35
56582;BME280;42463;52.214;21.238;2023-03-03T01:15:05;100672.13;;;0.02;69.27
56582;BME280;42463;52.214;21.238;2023-03-03T01:17:30;100671.41;;;0.04;69.13
56582;BME280;42463;52.214;21.238;2023-03-03T01:19:55;100668.20;;;0.07;68.99
56582;BME280;42463;52.214;21.238;2023-03-03T01:22:19;100662.20;;;0.06;69.11
56582;BME280;42463;52.214;21.238;2023-03-03T01:24:44;100658.33;;;0.06;68.96
56582;BME280;42463;52.214;21.238;2023-03-03T01:27:09;100656.09;;;0.07;69.07
56582;BME280;42463;52.214;21.238;2023-03-03T01:29:33;100649.44;;;0.09;69.13
56582;BME280;42463;52.214;21.238;2023-03-03T01:31:58;100645.55;;;0.12;69.01
56582;BME280;42463;52.214;21.238;2023-03-03T01:34:22;100638.77;;;0.12;69.18
56582;BME280;42463;52.214;21.238;2023-03-03T01:36:48;100635.08;;;0.12;69.04
56582;BME280;42463;52.214;21.238;2023-03-03T01:39:13;100634.55;;;0.12;68.94
56582;BME280;42463;52.214;21.238;2023-03-03T01:41:38;100634.97;;;0.10;68.96
56582;BME280;42463;52.214;21.238;2023-03-03T01:44:04;100635.23;;;0.06;68.79
56582;BME280;42463;52.214;21.238;2023-03-03T01:46:43;100632.01;;;0.05;69.02
56582;BME280;42463;52.214;21.238;2023-03-03T01:49:14;100627.35;;;0.04;68.99
56582;BME280;42463;52.214;21.238;2023-03-03T01:51:46;100620.75;;;0.04;68.91
56582;BME280;42463;52.214;21.238;2023-03-03T01:54:15;100625.86;;;0.06;69.08
56582;BME280;42463;52.214;21.238;2023-03-03T01:56:41;100627.67;;;0.06;68.89
56582;BME280;42463;52.214;21.238;2023-03-03T01:59:10;100627.95;;;0.05;68.98
56582;BME280;42463;52.214;21.238;2023-03-03T02:01:43;100627.06;;;0.03;68.95
56582;BME280;42463;52.214;21.238;2023-03-03T02:04:10;100624.25;;;0.04;69.16
56582;BME280;42463;52.214;21.238;2023-03-03T02:06:37;100623.05;;;0.07;69.11
56582;BME280;42463;52.214;21.238;2023-03-03T02:09:06;100624.00;;;0.07;68.82
56582;BME280;42463;52.214;21.238;2023-03-03T02:11:37;100624.29;;;0.04;68.75
56582;BME280;42463;52.214;21.238;2023-03-03T02:14:05;100621.08;;;-0.00;69.05
56582;BME280;42463;52.214;21.238;2023-03-03T02:16:30;100623.62;;;0.04;69.22
56582;BME280;42463;52.214;21.238;2023-03-03T02:18:56;100624.40;;;0.06;69.13
56582;BME280;42463;52.214;21.238;2023-03-03T02:21:23;100621.69;;;0.11;69.20
56582;BME280;42463;52.214;21.238;2023-03-03T02:23:54;100621.45;;;0.14;69.27
56582;BME280;42463;52.214;21.238;2023-03-03T02:26:24;100627.51;;;0.18;69.46
56582;BME280;42463;52.214;21.238;2023-03-03T02:28:52;100623.74;;;0.22;69.31
56582;BME280;42463;52.214;21.238;2023-03-03T02:31:19;100622.98;;;0.23;69.53
56582;BME280;42463;52.214;21.238;2023-03-03T02:33:46;100610.99;;;0.23;69.37
56582;BME280;42463;52.214;21.238;2023-03-03T02:36:14;100617.30;;;0.29;69.45
56582;BME280;42463;52.214;21.238;2023-03-03T02:38:43;100617.05;;;0.33;69.48
56582;BME280;42463;52.214;21.238;2023-03-03T02:41:14;100611.98;;;0.34;69.61
56582;BME280;42463;52.214;21.238;2023-03-03T02:43:43;100615.14;;;0.37;69.60
56582;BME280;42463;52.214;21.238;2023-03-03T02:46:10;100614.34;;;0.38;69.33
56582;BME280;42463;52.214;21.238;2023-03-03T02:48:35;100610.80;;;0.38;69.68
56582;BME280;42463;52.214;21.238;2023-03-03T02:51:00;100612.23;;;0.38;69.75
56582;BME280;42463;52.214;21.238;2023-03-03T02:53:24;100609.42;;;0.39;69.73
56582;BME280;42463;52.214;21.238;2023-03-03T02:55:50;100604.21;;;0.39;69.79
56582;BME280;42463;52.214;21.238;2023-03-03T02:58:14;100610.07;;;0.41;69.80
56582;BME280;42463;52.214;21.238;2023-03-03T03:00:38;100608.77;;;0.42;69.80
56582;BME280;42463;52.214;21.238;2023-03-03T03:03:03;100604.30;;;0.43;69.97
56582;BME280;42463;52.214;21.238;2023-03-03T03:05:28;100604.98;;;0.45;69.99
56582;BME280;42463;52.214;21.238;2023-03-03T03:07:53;100603.37;;;0.46;70.03
56582;BME280;42463;52.214;21.238;2023-03-03T03:10:18;100598.70;;;0.50;69.97
56582;BME280;42463;52.214;21.238;2023-03-03T03:12:42;100602.13;;;0.54;69.86
56582;BME280;42463;52.214;21.238;2023-03-03T03:15:09;100596.67;;;0.55;69.91
56582;BME280;42463;52.214;21.238;2023-03-03T03:17:34;100589.10;;;0.54;69.91
56582;BME280;42463;52.214;21.238;2023-03-03T03:19:59;100589.59;;;0.57;70.16
56582;BME280;42463;52.214;21.238;2023-03-03T03:22:24;100589.13;;;0.60;70.18
56582;BME280;42463;52.214;21.238;2023-03-03T03:24:49;100591.65;;;0.60;70.01
56582;BME280;42463;52.214;21.238;2023-03-03T03:27:13;100597.63;;;0.61;70.19
56582;BME280;42463;52.214;21.238;2023-03-03T03:29:39;100598.89;;;0.61;70.33
56582;BME280;42463;52.214;21.238;2023-03-03T03:32:05;100593.22;;;0.61;70.26
56582;BME280;42463;52.214;21.238;2023-03-03T03:34:30;100592.61;;;0.61;70.35
56582;BME280;42463;52.214;21.238;2023-03-03T03:36:55;100597.13;;;0.61;70.43
56582;BME280;42463;52.214;21.238;2023-03-03T03:39:20;100592.10;;;0.63;70.39
56582;BME280;42463;52.214;21.238;2023-03-03T03:41:45;100594.14;;;0.62;70.21
56582;BME280;42463;52.214;21.238;2023-03-03T03:44:09;100596.33;;;0.60;70.24
56582;BME280;42463;52.214;21.238;2023-03-03T03:46:34;100594.38;;;0.59;70.15
56582;BME280;42463;52.214;21.238;2023-03-03T03:49:00;100595.35;;;0.58;70.45
56582;BME280;42463;52.214;21.238;2023-03-03T03:51:24;100593.35;;;0.55;70.21
56582;BME280;42463;52.214;21.238;2023-03-03T03:53:49;100590.40;;;0.56;70.21
56582;BME280;42463;52.214;21.238;2023-03-03T03:56:15;100593.06;;;0.55;70.16
56582;BME280;42463;52.214;21.238;2023-03-03T03:58:41;100586.38;;;0.56;70.19
56582;BME280;42463;52.214;21.238;2023-03-03T04:01:07;100580.12;;;0.55;69.93
56582;BME280;42463;52.214;21.238;2023-03-03T04:03:37;100574.30;;;0.53;69.82
56582;BME280;42463;52.214;21.238;2023-03-03T04:06:05;100571.12;;;0.51;69.91
56582;BME280;42463;52.214;21.238;2023-03-03T04:08:30;100568.02;;;0.50;69.74
56582;BME280;42463;52.214;21.238;2023-03-03T04:10:54;100568.38;;;0.49;69.81
56582;BME280;42463;52.214;21.238;2023-03-03T04:13:20;100572.92;;;0.48;69.66
56582;BME280;42463;52.214;21.238;2023-03-03T04:15:46;100566.75;;;0.43;69.46
56582;BME280;42463;52.214;21.238;2023-03-03T04:18:11;100569.45;;;0.43;69.46
56582;BME280;42463;52.214;21.238;2023-03-03T04:20:36;100565.93;;;0.38;69.43
56582;BME280;42463;52.214;21.238;2023-03-03T04:23:03;100566.18;;;0.35;69.45
56582;BME280;42463;52.214;21.238;2023-03-03T04:25:28;100564.42;;;0.33;69.50
56582;BME280;42463;52.214;21.238;2023-03-03T04:27:53;100561.73;;;0.31;69.75
56582;BME280;42463;52.214;21.238;2023-03-03T04:30:18;100556.42;;;0.30;69.62
56582;BME280;42463;52.214;21.238;2023-03-03T04:32:45;100552.48;;;0.27;69.62
56582;BME280;42463;52.214;21.238;2023-03-03T04:35:10;100546.70;;;0.25;69.54
56582;BME280;42463;52.214;21.238;2023-03-03T04:37:37;100544.34;;;0.22;69.35
56582;BME280;42463;52.214;21.238;2023-03-03T04:40:03;100542.80;;;0.19;69.56
56582;BME280;42463;52.214;21.238;2023-03-03T04:42:28;100544.04;;;0.16;69.57
56582;BME280;42463;52.214;21.238;2023-03-03T04:44:53;100540.91;;;0.13;69.41
56582;BME280;42463;52.214;21.238;2023-03-03T04:47:18;100542.46;;;0.12;69.57
56582;BME280;42463;52.214;21.238;2023-03-03T04:49:42;100545.18;;;0.10;69.64
56582;BME280;42463;52.214;21.238;2023-03-03T04:52:07;100538.71;;;0.09;69.79
56582;BME280;42463;52.214;21.238;2023-03-03T04:54:33;100533.68;;;0.09;69.73
56582;BME280;42463;52.214;21.238;2023-03-03T04:56:57;100527.19;;;0.09;69.71
56582;BME280;42463;52.214;21.238;2023-03-03T04:59:22;100528.30;;;0.11;69.82
56582;BME280;42463;52.214;21.238;2023-03-03T05:01:46;100527.34;;;0.13;69.71
56582;BME280;42463;52.214;21.238;2023-03-03T05:04:13;100521.21;;;0.12;69.66
56582;BME280;42463;52.214;21.238;2023-03-03T05:06:38;100522.23;;;0.13;69.67
56582;BME280;42463;52.214;21.238;2023-03-03T05:09:03;100522.14;;;0.09;69.25
56582;BME280;42463;52.214;21.238;2023-03-03T05:11:28;100516.06;;;0.05;69.39
56582;BME280;42463;52.214;21.238;2023-03-03T05:13:54;100523.04;;;0.00;69.65
56582;BME280;42463;52.214;21.238;2023-03-03T05:16:19;100518.02;;;-0.04;69.91
56582;BME280;42463;52.214;21.238;2023-03-03T05:18:44;100526.48;;;-0.04;69.83
56582;BME280;42463;52.214;21.238;2023-03-03T05:21:09;100524.09;;;-0.05;70.00
56582;BME280;42463;52.214;21.238;2023-03-03T05:23:34;100525.60;;;-0.06;69.88
56582;BME280;42463;52.214;21.238;2023-03-03T05:25:59;100523.84;;;-0.05;70.01
56582;BME280;42463;52.214;21.238;2023-03-03T05:28:23;100526.52;;;-0.07;70.04
56582;BME280;42463;52.214;21.238;2023-03-03T05:30:48;100522.38;;;-0.10;70.23
56582;BME280;42463;52.214;21.238;2023-03-03T05:33:13;100523.52;;;-0.10;70.14
56582;BME280;42463;52.214;21.238;2023-03-03T05:35:38;100520.02;;;-0.11;70.32
56582;BME280;42463;52.214;21.238;2023-03-03T05:38:03;100521.35;;;-0.10;70.48
56582;BME280;42463;52.214;21.238;2023-03-03T05:40:28;100517.11;;;-0.06;70.65
56582;BME280;42463;52.214;21.238;2023-03-03T05:42:52;100518.04;;;-0.02;70.58
56582;BME280;42463;52.214;21.238;2023-03-03T05:45:17;100514.80;;;0.01;70.56
56582;BME280;42463;52.214;21.238;2023-03-03T05:47:43;100515.96;;;0.04;70.70
56582;BME280;42463;52.214;21.238;2023-03-03T05:50:09;100520.13;;;0.11;70.81
56582;BME280;42463;52.214;21.238;2023-03-03T05:52:34;100520.64;;;0.16;70.82
56582;BME280;42463;52.214;21.238;2023-03-03T05:54:58;100518.02;;;0.17;71.16
56582;BME280;42463;52.214;21.238;2023-03-03T05:57:23;100515.63;;;0.19;71.65
56582;BME280;42463;52.214;21.238;2023-03-03T05:59:48;100515.02;;;0.22;71.81
56582;BME280;42463;52.214;21.238;2023-03-03T06:02:13;100510.41;;;0.23;72.05
56582;BME280;42463;52.214;21.238;2023-03-03T06:04:37;100509.52;;;0.25;72.00
56582;BME280;42463;52.214;21.238;2023-03-03T06:07:02;100511.11;;;0.27;72.10
56582;BME280;42463;52.214;21.238;2023-03-03T06:09:26;100507.13;;;0.30;72.53
56582;BME280;42463;52.214;21.238;2023-03-03T06:11:51;100504.67;;;0.34;72.48
56582;BME280;42463;52.214;21.238;2023-03-03T06:14:16;100503.17;;;0.35;72.55
56582;BME280;42463;52.214;21.238;2023-03-03T06:16:40;100501.70;;;0.36;72.52
56582;BME280;42463;52.214;21.238;2023-03-03T06:19:05;100504.84;;;0.34;72.60
56582;BME280;42463;52.214;21.238;2023-03-03T06:21:29;100511.24;;;0.40;72.97
56582;BME280;42463;52.214;21.238;2023-03-03T06:23:53;100512.58;;;0.48;72.84
56582;BME280;42463;52.214;21.238;2023-03-03T06:26:18;100504.92;;;0.47;72.57
56582;BME280;42463;52.214;21.238;2023-03-03T06:28:43;100519.85;;;0.56;72.34
56582;BME280;42463;52.214;21.238;2023-03-03T06:31:08;100522.66;;;0.57;72.51
56582;BME280;42463;52.214;21.238;2023-03-03T06:33:30;100521.35;;;0.58;72.44
56582;BME280;42463;52.214;21.238;2023-03-03T06:35:54;100519.20;;;0.56;72.72
56582;BME280;42463;52.214;21.238;2023-03-03T06:38:19;100514.76;;;0.59;73.01
56582;BME280;42463;52.214;21.238;2023-03-03T06:40:45;100518.14;;;0.61;72.99
56582;BME280;42463;52.214;21.238;2023-03-03T06:43:09;100508.73;;;0.63;73.18
56582;BME280;42463;52.214;21.238;2023-03-03T06:45:34;100510.32;;;0.70;73.57
56582;BME280;42463;52.214;21.238;2023-03-03T06:47:59;100509.91;;;0.77;73.59
56582;BME280;42463;52.214;21.238;2023-03-03T06:50:24;100511.27;;;0.81;73.37
56582;BME280;42463;52.214;21.238;2023-03-03T06:52:48;100512.33;;;0.83;73.18
56582;BME280;42463;52.214;21.238;2023-03-03T06:55:20;100517.48;;;0.85;73.07
56582;BME280;42463;52.214;21.238;2023-03-03T06:57:45;100516.74;;;0.85;72.89
56582;BME280;42463;52.214;21.238;2023-03-03T07:00:21;100518.33;;;0.84;72.86
56582;BME280;42463;52.214;21.238;2023-03-03T07:02:56;100509.56;;;0.79;72.90
56582;BME280;42463;52.214;21.238;2023-03-03T07:05:19;100511.38;;;0.79;73.00
56582;BME280;42463;52.214;21.238;2023-03-03T07:07:45;100516.70;;;0.78;73.05
56582;BME280;42463;52.214;21.238;2023-03-03T07:10:19;100515.08;;;0.80;72.92
56582;BME280;42463;52.214;21.238;2023-03-03T07:12:46;100521.21;;;0.81;73.09
56582;BME280;42463;52.214;21.238;2023-03-03T07:15:16;100521.45;;;0.83;73.23
56582;BME280;42463;52.214;21.238;2023-03-03T07:17:45;100521.17;;;0.81;73.16
56582;BME280;42463;52.214;21.238;2023-03-03T07:20:18;100522.02;;;0.83;73.27
56582;BME280;42463;52.214;21.238;2023-03-03T07:22:43;100519.52;;;0.81;73.18
56582;BME280;42463;52.214;21.238;2023-03-03T07:25:20;100520.55;;;0.83;73.14
56582;BME280;42463;52.214;21.238;2023-03-03T07:27:44;100517.50;;;0.83;73.20
56582;BME280;42463;52.214;21.238;2023-03-03T07:30:21;100509.11;;;0.82;73.31
56582;BME280;42463;52.214;21.238;2023-03-03T07:32:47;100510.70;;;0.78;73.14
56582;BME280;42463;52.214;21.238;2023-03-03T07:35:32;100507.30;;;0.75;73.28
56582;BME280;42463;52.214;21.238;2023-03-03T07:38:00;100515.14;;;0.75;73.41
56582;BME280;42463;52.214;21.238;2023-03-03T07:40:34;100519.80;;;0.75;73.67
56582;BME280;42463;52.214;21.238;2023-03-03T07:43:00;100520.52;;;0.74;73.58
56582;BME280;42463;52.214;21.238;2023-03-03T07:45:35;100522.45;;;0.71;73.41
56582;BME280;42463;52.214;21.238;2023-03-03T07:48:07;100525.52;;;0.69;73.75
56582;BME280;42463;52.214;21.238;2023-03-03T07:50:37;100530.33;;;0.70;73.96
56582;BME280;42463;52.214;21.238;2023-03-03T07:53:05;100532.52;;;0.74;74.29
56582;BME280;42463;52.214;21.238;2023-03-03T07:55:37;100530.34;;;0.75;74.02
56582;BME280;42463;52.214;21.238;2023-03-03T07:58:22;100523.94;;;0.75;74.24
56582;BME280;42463;52.214;21.238;2023-03-03T08:03:47;100533.98;;;0.80;74.55
56582;BME280;42463;52.214;21.238;2023-03-03T08:06:36;100539.73;;;0.88;74.91
56582;BME280;42463;52.214;21.238;2023-03-03T08:09:23;100541.89;;;0.93;73.91
56582;BME280;42463;52.214;21.238;2023-03-03T08:11:52;100548.17;;;0.93;74.07
56582;BME280;42463;52.214;21.238;2023-03-03T08:14:23;100544.78;;;0.90;73.83
56582;BME280;42463;52.214;21.238;2023-03-03T08:16:49;100541.85;;;0.94;74.19
56582;BME280;42463;52.214;21.238;2023-03-03T08:19:17;100546.30;;;0.98;74.18
56582;BME280;42463;52.214;21.238;2023-03-03T08:21:42;100542.85;;;1.02;74.27
56582;BME280;42463;52.214;21.238;2023-03-03T08:24:07;100551.88;;;1.01;74.14
56582;BME280;42463;52.214;21.238;2023-03-03T08:26:31;100551.96;;;0.97;74.01
56582;BME280;42463;52.214;21.238;2023-03-03T08:28:55;100553.27;;;1.10;74.72
56582;BME280;42463;52.214;21.238;2023-03-03T08:31:21;100558.89;;;1.19;74.68
56582;BME280;42463;52.214;21.238;2023-03-03T08:33:46;100562.82;;;1.26;74.04
56582;BME280;42463;52.214;21.238;2023-03-03T08:36:11;100561.24;;;1.29;73.93
56582;BME280;42463;52.214;21.238;2023-03-03T08:38:36;100550.63;;;1.31;73.89
56582;BME280;42463;52.214;21.238;2023-03-03T08:41:02;100563.23;;;1.38;73.77
56582;BME280;42463;52.214;21.238;2023-03-03T08:43:27;100568.98;;;1.38;73.25
56582;BME280;42463;52.214;21.238;2023-03-03T08:45:53;100580.60;;;1.43;73.66
56582;BME280;42463;52.214;21.238;2023-03-03T08:48:21;100590.89;;;1.53;74.06
56582;BME280;42463;52.214;21.238;2023-03-03T08:51:04;100586.73;;;1.61;72.96
56582;BME280;42463;52.214;21.238;2023-03-03T08:53:32;100585.05;;;1.57;72.80
56582;BME280;42463;52.214;21.238;2023-03-03T08:55:58;100583.36;;;1.54;72.96
56582;BME280;42463;52.214;21.238;2023-03-03T08:58:23;100583.21;;;1.55;72.99
56582;BME280;42463;52.214;21.238;2023-03-03T09:00:47;100589.05;;;1.55;73.04
56582;BME280;42463;52.214;21.238;2023-03-03T09:03:12;100588.35;;;1.64;73.05
56582;BME280;42463;52.214;21.238;2023-03-03T09:05:38;100584.29;;;1.69;72.78
56582;BME280;42463;52.214;21.238;2023-03-03T09:08:03;100583.33;;;1.77;72.81
56582;BME280;42463;52.214;21.238;2023-03-03T09:10:29;100578.41;;;1.85;72.40
56582;BME280;42463;52.214;21.238;2023-03-03T09:12:55;100576.00;;;1.92;72.44
56582;BME280;42463;52.214;21.238;2023-03-03T09:15:24;100580.55;;;2.01;71.99
56582;BME280;42463;52.214;21.238;2023-03-03T09:17:51;100574.29;;;1.99;71.19
56582;BME280;42463;52.214;21.238;2023-03-03T09:20:32;100575.50;;;1.92;71.34
56582;BME280;42463;52.214;21.238;2023-03-03T09:22:58;100572.88;;;1.87;71.36
56582;BME280;42463;52.214;21.238;2023-03-03T09:25:32;100566.88;;;1.77;71.06
56582;BME280;42463;52.214;21.238;2023-03-03T09:27:57;100559.31;;;1.70;71.19
56582;BME280;42463;52.214;21.238;2023-03-03T09:30:35;100544.02;;;1.65;71.47
56582;BME280;42463;52.214;21.238;2023-03-03T09:33:00;100543.05;;;1.74;71.83
56582;BME280;42463;52.214;21.238;2023-03-03T09:35:36;100537.85;;;1.77;71.82
56582;BME280;42463;52.214;21.238;2023-03-03T09:38:04;100537.39;;;1.74;71.40
56582;BME280;42463;52.214;21.238;2023-03-03T09:40:45;100539.17;;;1.72;71.49
56582;BME280;42463;52.214;21.238;2023-03-03T09:43:19;100533.42;;;1.73;72.02
56582;BME280;42463;52.214;21.238;2023-03-03T09:45:59;100531.29;;;1.79;71.94
56582;BME280;42463;52.214;21.238;2023-03-03T09:48:33;100524.55;;;1.81;71.72
56582;BME280;42463;52.214;21.238;2023-03-03T09:51:14;100523.95;;;1.82;71.16
56582;BME280;42463;52.214;21.238;2023-03-03T09:53:56;100520.71;;;1.79;71.08
56582;BME280;42463;52.214;21.238;2023-03-03T09:56:27;100526.05;;;1.77;71.66
56582;BME280;42463;52.214;21.238;2023-03-03T09:59:11;100517.23;;;1.79;71.44
56582;BME280;42463;52.214;21.238;2023-03-03T10:02:00;100517.60;;;1.81;71.67
56582;BME280;42463;52.214;21.238;2023-03-03T10:04:40;100522.52;;;1.84;71.79
56582;BME280;42463;52.214;21.238;2023-03-03T10:07:17;100524.00;;;1.89;71.78
56582;BME280;42463;52.214;21.238;2023-03-03T10:09:57;100522.92;;;1.95;71.63
56582;BME280;42463;52.214;21.238;2023-03-03T10:12:30;100520.75;;;1.97;71.33
56582;BME280;42463;52.214;21.238;2023-03-03T10:15:19;100525.48;;;1.96;71.51
56582;BME280;42463;52.214;21.238;2023-03-03T10:17:51;100526.66;;;1.93;71.24
56582;BME280;42463;52.214;21.238;2023-03-03T10:20:27;100528.55;;;1.87;70.93
56582;BME280;42463;52.214;21.238;2023-03-03T10:23:06;100537.60;;;1.82;70.97
56582;BME280;42463;52.214;21.238;2023-03-03T10:25:39;100537.80;;;1.75;71.15
56582;BME280;42463;52.214;21.238;2023-03-03T10:28:17;100539.29;;;1.71;71.53
56582;BME280;42463;52.214;21.238;2023-03-03T10:30:52;100532.98;;;1.75;71.58
56582;BME280;42463;52.214;21.238;2023-03-03T10:33:30;100536.77;;;1.81;71.66
56582;BME280;42463;52.214;21.238;2023-03-03T10:36:13;100541.36;;;1.88;71.40
56582;BME280;42463;52.214;21.238;2023-03-03T10:38:51;100545.09;;;1.93;71.20
56582;BME280;42463;52.214;21.238;2023-03-03T10:41:31;100543.79;;;1.89;70.81
56582;BME280;42463;52.214;21.238;2023-03-03T10:44:22;100546.20;;;1.87;71.11
56582;BME280;42463;52.214;21.238;2023-03-03T10:46:59;100544.33;;;1.89;71.15
56582;BME280;42463;52.214;21.238;2023-03-03T10:49:37;100544.81;;;1.88;70.93
56582;BME280;42463;52.214;21.238;2023-03-03T10:52:24;100547.04;;;1.89;71.03
56582;BME280;42463;52.214;21.238;2023-03-03T10:57:51;100541.98;;;1.89;70.76
56582;BME280;42463;52.214;21.238;2023-03-03T11:00:25;100538.30;;;1.86;70.66
56582;BME280;42463;52.214;21.238;2023-03-03T11:03:20;100533.90;;;1.81;70.98
56582;BME280;42463;52.214;21.238;2023-03-03T11:05:54;100532.11;;;1.84;70.86
56582;BME280;42463;52.214;21.238;2023-03-03T11:08:26;100528.91;;;1.91;71.15
56582;BME280;42463;52.214;21.238;2023-03-03T11:10:57;100535.86;;;2.03;71.11
56582;BME280;42463;52.214;21.238;2023-03-03T11:13:30;100533.81;;;2.11;70.61
56582;BME280;42463;52.214;21.238;2023-03-03T11:16:16;100531.92;;;2.13;70.41
56582;BME280;42463;52.214;21.238;2023-03-03T11:18:54;100531.80;;;2.13;70.19
56582;BME280;42463;52.214;21.238;2023-03-03T11:21:25;100529.63;;;2.15;70.12
56582;BME280;42463;52.214;21.238;2023-03-03T11:24:12;100530.73;;;2.13;70.48
56582;BME280;42463;52.214;21.238;2023-03-03T11:27:10;100529.27;;;2.15;70.25
56582;BME280;42463;52.214;21.238;2023-03-03T11:29:50;100531.14;;;2.09;69.88
56582;BME280;42463;52.214;21.238;2023-03-03T11:32:25;100529.27;;;2.11;70.25
56582;BME280;42463;52.214;21.238;2023-03-03T11:35:03;100526.07;;;2.08;69.95
56582;BME280;42463;52.214;21.238;2023-03-03T11:37:37;100523.64;;;2.03;70.06
56582;BME280;42463;52.214;21.238;2023-03-03T11:40:13;100526.64;;;2.08;70.38
56582;BME280;42463;52.214;21.238;2023-03-03T11:42:49;100525.22;;;2.13;69.99
56582;BME280;42463;52.214;21.238;2023-03-03T11:45:19;100522.68;;;2.09;70.15
56582;BME280;42463;52.214;21.238;2023-03-03T11:47:49;100514.65;;;2.15;70.48
56582;BME280;42463;52.214;21.238;2023-03-03T11:50:21;100512.95;;;2.22;70.41
56582;BME280;42463;52.214;21.238;2023-03-03T11:52:49;100514.83;;;2.25;69.61
56582;BME280;42463;52.214;21.238;2023-03-03T11:55:19;100514.72;;;2.20;69.26
56582;BME280;42463;52.214;21.238;2023-03-03T11:57:49;100517.42;;;2.18;69.13
56582;BME280;42463;52.214;21.238;2023-03-03T12:00:24;100517.35;;;2.22;69.32
56582;BME280;42463;52.214;21.238;2023-03-03T12:03:01;100521.39;;;2.19;68.99
56582;BME280;42463;52.214;21.238;2023-03-03T12:05:36;100520.83;;;2.10;68.32
56582;BME280;42463;52.214;21.238;2023-03-03T12:08:11;100526.92;;;2.03;68.84
56582;BME280;42463;52.214;21.238;2023-03-03T12:10:43;100527.23;;;2.06;69.10
56582;BME280;42463;52.214;21.238;2023-03-03T12:13:12;100523.08;;;2.09;69.32
56582;BME280;42463;52.214;21.238;2023-03-03T12:15:47;100525.70;;;2.15;69.09
56582;BME280;42463;52.214;21.238;2023-03-03T12:18:24;100520.66;;;2.10;68.67
56582;BME280;42463;52.214;21.238;2023-03-03T12:21:05;100519.52;;;2.12;69.34
56582;BME280;42463;52.214;21.238;2023-03-03T12:23:49;100519.96;;;2.17;69.14
56582;BME280;42463;52.214;21.238;2023-03-03T12:26:23;100524.02;;;2.14;68.87
56582;BME280;42463;52.214;21.238;2023-03-03T12:28:52;100522.63;;;2.10;68.99
56582;BME280;42463;52.214;21.238;2023-03-03T12:31:34;100522.09;;;2.05;69.07
56582;BME280;42463;52.214;21.238;2023-03-03T12:34:07;100521.25;;;2.04;69.11
56582;BME280;42463;52.214;21.238;2023-03-03T12:36:49;100521.16;;;2.07;69.32
56582;BME280;42463;52.214;21.238;2023-03-03T12:39:22;100524.08;;;2.07;69.09
56582;BME280;42463;52.214;21.238;2023-03-03T12:41:55;100522.44;;;2.03;68.76
56582;BME280;42463;52.214;21.238;2023-03-03T12:44:27;100521.16;;;1.96;68.76
56582;BME280;42463;52.214;21.238;2023-03-03T12:47:00;100524.13;;;1.84;68.81
56582;BME280;42463;52.214;21.238;2023-03-03T12:49:33;100526.16;;;1.76;69.24
56582;BME280;42463;52.214;21.238;2023-03-03T12:52:09;100520.82;;;1.76;69.36
56582;BME280;42463;52.214;21.238;2023-03-03T12:54:50;100526.14;;;1.82;69.67
56582;BME280;42463;52.214;21.238;2023-03-03T12:57:23;100525.02;;;1.87;69.69
56582;BME280;42463;52.214;21.238;2023-03-03T12:59:59;100523.32;;;1.93;69.67
56582;BME280;42463;52.214;21.238;2023-03-03T13:02:42;100518.20;;;2.01;69.56
56582;BME280;42463;52.214;21.238;2023-03-03T13:05:18;100512.86;;;2.08;69.44
56582;BME280;42463;52.214;21.238;2023-03-03T13:07:49;100519.91;;;2.15;68.92